LFPO Airport Information

Runway Information
Runway 02 Length 7874 ft width 197 ft
Elevation 287 ft Threshold 0 ft Heading 18
Runway 20 Length 7874 ft Width 197 ft
Elevation 287 ft Threshold 0 ft Heading 198
Runway 06 Length 11975 ft width 148 ft
Elevation 283 ft Threshold 984 ft Heading 62
Runway 24 Length 11975 ft Width 148 ft
Elevation 284 ft Threshold 0 ft Heading 242
Runway 08 Length 10892 ft width 148 ft
Elevation 277 ft Threshold 0 ft Heading 74
Runway 26 Length 10892 ft Width 148 ft
Elevation 287 ft Threshold 1427 ft Heading 254
Airport Frequencies
Type APP Name APP Frequency 123.875 MHZ
Type ATIS Name ATIS Frequency 131.35 MHZ
Type DEP Name DEP Frequency 127.75 MHZ
Type GND Name GND Frequency 121.7 MHZ
Type PFLT Name PREFLIGHT Frequency 121.05 MHZ
Type TWR Name TWR Frequency 118.7 MHZ
Airport Navaids
Type VOR-DME Name Orly Frequency 111200 KHZ
Airport Weather Information & NOTAM
ADDS - METARS form results

(1352 UTC 17 February 2019)
Data provider http://aviationweather.gov/metar/data/
 
METAR text: LFPO 171330Z 20012KT CAVOK 17/00 Q1020 NOSIG
Conditions at: LFPO (PARIS/ORLY , FR) observed 1330 UTC 17 February 2019
Temperature: 17.0°C (63°F)
Dewpoint: 0.0°C (32°F) [RH = 32%]
Pressure (altimeter): 30.12 inches Hg (1020.0 mb)
Winds: from the SSW (200 degrees) at 14 MPH (12 knots; 6.2 m/s)
Visibility: 6 or more miles (10+ km)
Ceiling: ceiling and visibility are OK
Clouds: unknown
Weather: no significant weather observed at this time

METAR text: LFPO 171300Z 20010KT 170V230 CAVOK 16/M00 Q1020 NOSIG
Conditions at: LFPO (PARIS/ORLY , FR) observed 1300 UTC 17 February 2019
Temperature: 16.0°C (61°F)
Dewpoint: 0.0°C (32°F) [RH = 34%]
Pressure (altimeter): 30.12 inches Hg (1020.0 mb)
Winds: from the SSW (200 degrees) at 12 MPH (10 knots; 5.1 m/s)
Visibility: 6 or more miles (10+ km)
Ceiling: ceiling and visibility are OK
Clouds: unknown
Weather: no significant weather observed at this time

Forecast for: LFPO (PARIS/ORLY , FR)
Text: TAF LFPO 171100Z 1712/1818 20010KT CAVOK
Forecast period: 1200 to 1800 UTC 17 February 2019
Forecast type: FROM: standard forecast or significant change
Winds: from the SSW (200 degrees) at 12 MPH (10 knots; 5.1 m/s)
Visibility: 6 or more miles 10+ km)
Ceiling: unknown
Clouds: missing
Weather: NSW  (no significant weather)
Text: BECMG 1718/1720 16005KT
Forecast period: 1800 UTC 17 February 2019 to 1800 UTC 18 February 2019
Forecast type: BECOMING: Conditions expected to become as follows by 2000 UTC 17 February 2019
Winds: from the SSE (160 degrees) at 6 MPH (5 knots; 2.6 m/s)
Visibility: 6 or more miles 10+ km)
Ceiling: unknown
Clouds: missing
Weather: NSW  (no significant weather)
Text: PROB30
Forecast period: 0300 to 0700 UTC 18 February 2019
Forecast type: TEMPORARY: The following changes expected for less than half the time period
Visibility: 2.49 miles (4.01 km)
Ceiling: unknown
Clouds: missing
Weather: BR  (mist)